Time;durP1;ratioP1;P1;durP2;ratioP2;P2;SDS_P1;SDS_P2;PMS_P1;PMS_P2;Temp;Humidity;BMP_temperature;BMP_pressure;BME280_temperature;BME280_humidity;BME280_pressure;Samples;Min_cycle;Max_cycle;Signal;HPM_P1;HPM_P2
2022/10/16 00:02:30;;;;;;;32.30;26.12;;;18.40;77.90;;;;;;10808602;33;20064;-77
2022/10/16 00:08:33;;;;;;;31.87;21.70;;;18.40;77.90;;;;;;10848797;32;20054;-76
2022/10/16 00:14:34;;;;;;;28.58;21.40;;;18.40;77.80;;;;;;10826033;32;20055;-76
2022/10/16 00:20:36;;;;;;;33.80;21.73;;;18.40;77.80;;;;;;10817042;27;20039;-76
2022/10/16 00:26:39;;;;;;;31.23;23.25;;;18.40;77.90;;;;;;10821399;33;20032;-76
2022/10/16 00:32:41;;;;;;;27.08;20.50;;;18.30;78.10;;;;;;10825005;32;20392;-71
2022/10/16 00:39:02;;;;;;;29.95;22.77;;;18.40;78.00;;;;;;10812102;33;20360;-72
2022/10/16 00:45:05;;;;;;;32.38;22.25;;;18.30;78.00;;;;;;10820956;33;20408;-71
2022/10/16 00:51:08;;;;;;;25.83;19.65;;;18.40;78.10;;;;;;10824888;33;20040;-71
2022/10/16 00:57:10;;;;;;;29.50;21.60;;;18.30;78.10;;;;;;10824737;33;20047;-71
2022/10/16 01:03:28;;;;;;;35.30;24.17;;;18.30;78.30;;;;;;10824611;33;20347;-71
2022/10/16 01:09:57;;;;;;;34.67;23.58;;;18.30;78.60;;;;;;10821718;33;20388;-71
2022/10/16 01:16:02;;;;;;;29.92;22.23;;;18.30;78.70;;;;;;10811264;33;20442;-71
2022/10/16 01:22:07;;;;;;;23.12;19.00;;;18.30;78.50;;;;;;10823974;33;20419;-72
2022/10/16 01:28:12;;;;;;;26.80;20.83;;;18.30;78.50;;;;;;10822957;33;20054;-72
2022/10/16 01:34:38;;;;;;;39.10;22.02;;;18.30;78.60;;;;;;10819795;33;20059;-73
2022/10/16 01:40:46;;;;;;;33.65;26.48;;;18.30;78.80;;;;;;10824087;32;20305;-73
2022/10/16 01:46:51;;;;;;;28.77;22.75;;;18.20;78.90;;;;;;10826169;33;20050;-73
2022/10/16 01:52:56;;;;;;;29.65;20.67;;;18.20;79.10;;;;;;10829909;33;20348;-71
2022/10/16 01:59:20;;;;;;;29.10;21.05;;;18.20;79.20;;;;;;10812707;33;20024;-71
2022/10/16 02:05:40;;;;;;;30.05;20.58;;;18.20;79.10;;;;;;10829746;33;20058;-71
2022/10/16 02:11:42;;;;;;;25.40;17.75;;;18.20;79.10;;;;;;10829485;33;20384;-71
2022/10/16 02:18:06;;;;;;;29.33;21.30;;;18.20;79.10;;;;;;10816207;33;20384;-71
2022/10/16 02:24:15;;;;;;;31.15;24.23;;;18.20;79.30;;;;;;10826490;33;20024;-72
2022/10/16 02:30:29;;;;;;;;;;;18.20;79.60;;;;;;10812165;33;20031;-72
2022/10/16 02:36:32;;;;;;;32.45;20.35;;;18.20;79.60;;;;;;10829988;33;20011;-72
2022/10/16 02:42:37;;;;;;;24.58;19.02;;;18.10;79.80;;;;;;10815555;33;20054;-72
2022/10/16 02:48:39;;;;;;;28.65;21.12;;;18.10;79.80;;;;;;10811394;33;20053;-72
2022/10/16 02:54:41;;;;;;;26.60;21.98;;;18.20;79.80;;;;;;10828079;32;20024;-72
2022/10/16 03:00:43;;;;;;;24.95;20.65;;;18.10;80.00;;;;;;10828213;33;20024;-72
2022/10/16 03:06:45;;;;;;;34.97;24.45;;;18.00;80.00;;;;;;10828130;33;20609;-72
2022/10/16 03:12:47;;;;;;;35.33;25.65;;;18.10;79.90;;;;;;10811853;33;20024;-72
2022/10/16 03:18:50;;;;;;;28.42;22.05;;;18.10;80.00;;;;;;10827596;33;20016;-72
2022/10/16 03:24:52;;;;;;;34.10;25.08;;;18.10;80.20;;;;;;10827371;33;20020;-72
2022/10/16 03:30:54;;;;;;;32.47;25.20;;;18.00;80.40;;;;;;10827182;33;20039;-72
2022/10/16 03:36:56;;;;;;;31.62;24.15;;;18.00;80.50;;;;;;10826290;33;20020;-72
2022/10/16 03:42:59;;;;;;;35.53;26.55;;;18.00;80.70;;;;;;10809673;33;20020;-72
2022/10/16 03:49:02;;;;;;;45.58;33.13;;;18.00;80.90;;;;;;10826724;33;20058;-71
2022/10/16 03:55:04;;;;;;;44.97;34.72;;;17.90;81.00;;;;;;10826471;33;20028;-72
2022/10/16 04:01:07;;;;;;;41.70;32.00;;;18.00;81.10;;;;;;10824526;33;20032;-72
2022/10/16 04:07:09;;;;;;;54.20;38.53;;;18.00;81.20;;;;;;10808482;33;20043;-71
2022/10/16 04:13:12;;;;;;;47.47;34.33;;;17.90;81.20;;;;;;10826097;33;20020;-71
2022/10/16 04:19:14;;;;;;;54.63;39.30;;;17.90;81.50;;;;;;10825883;33;20034;-72
2022/10/16 04:25:16;;;;;;;35.47;28.02;;;17.80;81.80;;;;;;10809264;33;20024;-72
2022/10/16 04:31:19;;;;;;;41.03;32.03;;;17.80;82.00;;;;;;10825372;33;20051;-72
2022/10/16 04:37:25;;;;;;;31.67;23.15;;;17.80;82.30;;;;;;10825445;33;20020;-72
2022/10/16 04:43:27;;;;;;;39.03;32.30;;;17.70;82.40;;;;;;10821073;33;20356;-72
2022/10/16 04:49:29;;;;;;;28.77;23.83;;;17.70;82.60;;;;;;10820777;33;20446;-72
2022/10/16 04:55:31;;;;;;;40.60;29.52;;;17.70;82.70;;;;;;10824753;33;20050;-72
2022/10/16 05:01:33;;;;;;;37.92;26.37;;;17.70;82.70;;;;;;10811620;33;20027;-72
2022/10/16 05:07:35;;;;;;;36.65;30.20;;;17.70;82.80;;;;;;10825223;33;20071;-72
2022/10/16 05:13:37;;;;;;;36.55;27.98;;;17.60;83.10;;;;;;10824365;33;20055;-72
2022/10/16 05:19:39;;;;;;;32.97;24.33;;;17.50;83.20;;;;;;10824727;32;20019;-72
2022/10/16 05:25:42;;;;;;;37.30;25.70;;;17.50;83.30;;;;;;10829038;33;20020;-72
2022/10/16 05:31:44;;;;;;;35.63;22.13;;;17.50;83.20;;;;;;10826569;33;20286;-72
2022/10/16 05:37:46;;;;;;;32.58;23.67;;;17.50;83.30;;;;;;10830495;33;20055;-72
2022/10/16 05:43:49;;;;;;;31.08;20.58;;;17.40;83.40;;;;;;10830228;33;20039;-72
2022/10/16 05:49:52;;;;;;;26.58;20.77;;;17.50;83.40;;;;;;10817072;33;20042;-72
2022/10/16 05:55:55;;;;;;;28.90;24.15;;;17.50;83.30;;;;;;10816800;33;20335;-72
2022/10/16 06:01:57;;;;;;;30.45;18.83;;;17.50;83.30;;;;;;10825814;33;20051;-72
2022/10/16 06:07:59;;;;;;;38.53;24.60;;;17.50;83.30;;;;;;10827388;33;20422;-72
2022/10/16 06:14:06;;;;;;;28.33;20.73;;;17.50;83.40;;;;;;10827832;32;20400;-72
2022/10/16 06:20:08;;;;;;;42.70;27.70;;;17.50;83.30;;;;;;10798554;32;20290;-72
2022/10/16 06:26:13;;;;;;;33.05;25.08;;;17.50;83.30;;;;;;10791530;33;20024;-73
2022/10/16 06:32:15;;;;;;;28.75;20.27;;;17.50;83.50;;;;;;10795051;32;20380;-72
2022/10/16 06:38:18;;;;;;;28.38;20.25;;;17.50;83.50;;;;;;10813406;33;20047;-72
2022/10/16 06:44:20;;;;;;;25.75;22.60;;;17.50;83.60;;;;;;10788495;33;20340;-72
2022/10/16 06:50:23;;;;;;;30.42;24.20;;;17.50;83.40;;;;;;10787654;32;20561;-72
2022/10/16 06:56:54;;;;;;;33.38;25.60;;;17.60;83.30;;;;;;10778323;33;20029;-73
2022/10/16 07:02:56;;;;;;;33.08;26.70;;;17.70;83.20;;;;;;10789252;33;20060;-72
2022/10/16 07:09:00;;;;;;;29.95;22.42;;;17.60;83.20;;;;;;10773882;33;20046;-72
2022/10/16 07:15:12;;;;;;;41.10;28.90;;;17.70;83.30;;;;;;10790770;33;20055;-72
2022/10/16 07:21:22;;;;;;;33.50;25.85;;;17.70;83.10;;;;;;10777564;33;20013;-72
2022/10/16 07:27:24;;;;;;;39.78;30.30;;;17.80;83.00;;;;;;10774604;33;20028;-71
2022/10/16 07:33:26;;;;;;;33.33;26.37;;;17.80;82.90;;;;;;10840985;32;20082;-72
2022/10/16 07:39:28;;;;;;;40.05;29.25;;;17.80;82.80;;;;;;10790022;33;20335;-78
2022/10/16 07:45:30;;;;;;;40.15;29.20;;;17.90;82.80;;;;;;10772989;33;20047;-77
2022/10/16 07:51:33;;;;;;;35.65;28.62;;;18.00;82.60;;;;;;10790041;33;20028;-77
2022/10/16 07:57:35;;;;;;;40.17;31.08;;;18.10;82.60;;;;;;10789986;33;20017;-77
2022/10/16 08:03:37;;;;;;;41.45;31.90;;;18.20;82.50;;;;;;10786248;33;20032;-76
2022/10/16 08:09:39;;;;;;;41.70;31.02;;;18.30;82.10;;;;;;10790526;33;20289;-77
2022/10/16 08:15:45;;;;;;;49.17;33.08;;;18.40;82.10;;;;;;10789259;33;20023;-79
2022/10/16 08:21:48;;;;;;;41.03;36.42;;;18.50;82.20;;;;;;10494266;27;10005522;-76
2022/10/16 08:27:53;;;;;;;44.30;34.45;;;18.50;82.00;;;;;;10773870;33;20062;-77
2022/10/16 08:33:55;;;;;;;32.50;26.80;;;18.60;81.80;;;;;;10778653;33;20037;-77
2022/10/16 08:40:27;;;;;;;39.25;31.60;;;18.70;81.50;;;;;;10763670;32;20047;-77
2022/10/16 08:46:40;;;;;;;37.15;29.67;;;18.80;81.40;;;;;;10785132;33;20029;-77
2022/10/16 08:52:45;;;;;;;41.20;30.52;;;18.80;81.40;;;;;;10774775;32;20024;-77
2022/10/16 08:58:48;;;;;;;45.20;33.85;;;18.90;81.30;;;;;;10788416;33;20064;-77
2022/10/16 09:04:58;;;;;;;46.25;37.13;;;19.10;81.00;;;;;;10790905;32;20032;-72
2022/10/16 09:11:33;;;;;;;42.50;33.45;;;19.10;80.60;;;;;;10750822;33;20045;-72
2022/10/16 09:17:56;;;;;;;40.12;31.65;;;19.30;80.70;;;;;;10670647;33;20290;-72
2022/10/16 09:24:19;;;;;;;46.70;31.55;;;19.50;80.20;;;;;;10670614;33;20084;-73
2022/10/16 09:30:24;;;;;;;38.58;31.00;;;19.60;79.80;;;;;;10670561;33;20021;-73
2022/10/16 09:36:32;;;;;;;48.53;36.28;;;19.70;79.60;;;;;;10674298;33;20033;-72
2022/10/16 09:42:37;;;;;;;44.17;32.38;;;19.70;79.40;;;;;;10671272;33;20025;-72
2022/10/16 09:48:48;;;;;;;45.90;33.83;;;19.80;79.20;;;;;;10675058;33;20030;-72
2022/10/16 09:54:56;;;;;;;42.03;33.33;;;19.90;78.90;;;;;;10766616;33;20028;-72
2022/10/16 10:00:59;;;;;;;31.95;27.48;;;20.00;78.70;;;;;;10783756;33;20318;-72
2022/10/16 10:07:04;;;;;;;43.83;31.12;;;20.20;78.60;;;;;;10822363;33;20062;-73
2022/10/16 10:13:19;;;;;;;44.05;29.23;;;20.30;79.10;;;;;;10825281;33;20063;-72
2022/10/16 10:19:23;;;;;;;37.60;30.05;;;20.50;78.50;;;;;;10801640;32;20059;-73
2022/10/16 10:25:53;;;;;;;41.83;35.25;;;20.70;78.20;;;;;;10828485;32;20027;-72
2022/10/16 10:32:49;;;;;;;46.88;37.00;;;20.80;78.20;;;;;;10815728;33;20058;-73
2022/10/16 10:38:56;;;;;;;37.38;30.12;;;20.80;78.20;;;;;;10798974;33;20058;-72
2022/10/16 10:45:15;;;;;;;35.53;29.45;;;20.90;78.10;;;;;;10793277;33;20025;-72
2022/10/16 10:51:18;;;;;;;36.10;29.20;;;21.10;77.80;;;;;;10780705;33;20028;-73
2022/10/16 10:57:40;;;;;;;41.55;30.50;;;21.30;77.10;;;;;;10780274;33;20029;-73
2022/10/16 11:04:19;;;;;;;37.28;31.50;;;21.40;76.70;;;;;;10793464;33;20345;-73
2022/10/16 11:10:26;;;;;;;39.75;29.30;;;21.10;77.40;;;;;;10780043;33;20032;-72
2022/10/16 11:16:53;;;;;;;44.30;29.83;;;20.90;77.80;;;;;;10789888;33;20059;-71
2022/10/16 11:23:07;;;;;;;37.55;24.77;;;21.20;77.30;;;;;;10790848;33;20298;-75
2022/10/16 11:29:21;;;;;;;31.92;25.48;;;21.20;77.20;;;;;;10790671;33;20074;-77
2022/10/16 11:35:39;;;;;;;31.52;24.30;;;21.10;77.00;;;;;;10788406;33;20029;-74
2022/10/16 11:41:49;;;;;;;34.95;27.25;;;21.20;76.90;;;;;;10790662;33;20431;-74
2022/10/16 11:48:01;;;;;;;32.17;25.42;;;21.50;76.10;;;;;;10790380;33;20026;-77
2022/10/16 11:54:21;;;;;;;29.75;23.38;;;21.50;75.90;;;;;;10785835;33;20427;-77
2022/10/16 12:00:31;;;;;;;32.13;23.38;;;21.50;76.00;;;;;;10776730;33;20020;-75
2022/10/16 12:06:36;;;;;;;32.30;23.12;;;21.70;75.80;;;;;;10785741;33;20028;-77
2022/10/16 12:12:40;;;;;;;31.83;23.45;;;21.80;75.30;;;;;;10789972;33;20024;-77
2022/10/16 12:19:06;;;;;;;31.85;24.50;;;21.90;74.80;;;;;;10776411;33;20024;-76
2022/10/16 12:25:23;;;;;;;24.77;20.80;;;22.00;74.50;;;;;;10784976;32;20035;-74
2022/10/16 12:31:40;;;;;;;26.25;21.77;;;22.20;74.40;;;;;;10775835;33;20463;-75
2022/10/16 12:37:41;;;;;;;34.78;20.58;;;22.20;73.90;;;;;;10787563;32;20059;-76
2022/10/16 12:44:24;;;;;;;30.25;23.55;;;22.20;74.10;;;;;;10788812;33;20050;-78
2022/10/16 12:50:36;;;;;;;27.98;21.12;;;22.20;73.70;;;;;;10838755;32;20059;-76
2022/10/16 12:57:22;;;;;;;27.58;24.65;;;22.20;73.50;;;;;;10787976;33;20052;-77
2022/10/16 13:03:50;;;;;;;27.02;21.08;;;22.20;73.50;;;;;;10834104;32;20025;-73
2022/10/16 13:10:16;;;;;;;26.15;22.17;;;22.10;73.50;;;;;;10789022;32;20059;-76
2022/10/16 13:16:56;;;;;;;29.42;22.75;;;22.00;73.50;;;;;;10774494;33;20325;-75
2022/10/16 13:23:04;;;;;;;23.08;20.02;;;22.00;73.50;;;;;;10779519;33;20070;-76
2022/10/16 13:29:06;;;;;;;31.77;21.50;;;22.00;73.60;;;;;;10825913;32;20067;-71
2022/10/16 13:35:30;;;;;;;30.10;22.90;;;21.90;73.40;;;;;;10809536;32;20050;-71
2022/10/16 13:41:32;;;;;;;26.08;21.10;;;21.90;73.60;;;;;;10818083;32;20028;-71
2022/10/16 13:47:34;;;;;;;33.13;22.35;;;21.90;73.60;;;;;;10772651;33;20113;-72
2022/10/16 13:53:36;;;;;;;27.98;20.77;;;21.90;73.70;;;;;;10790842;32;20036;-72
2022/10/16 13:59:39;;;;;;;30.30;20.90;;;22.00;73.70;;;;;;10776952;33;20423;-72
2022/10/16 14:05:49;;;;;;;28.10;19.87;;;22.30;73.40;;;;;;10792747;33;20024;-72
2022/10/16 14:12:03;;;;;;;23.25;18.45;;;22.40;73.10;;;;;;10779553;33;20019;-72
2022/10/16 14:18:06;;;;;;;30.50;19.62;;;22.50;73.00;;;;;;10788492;33;20029;-72
2022/10/16 14:24:13;;;;;;;29.40;21.52;;;22.50;73.00;;;;;;10773722;32;20047;-72
2022/10/16 14:30:17;;;;;;;24.83;19.47;;;22.60;72.90;;;;;;10775670;33;20051;-72
2022/10/16 14:36:48;;;;;;;26.30;20.62;;;22.60;72.70;;;;;;10774264;33;20345;-72
2022/10/16 14:42:52;;;;;;;25.55;20.20;;;22.60;72.80;;;;;;10764541;32;20063;-72
2022/10/16 14:49:10;;;;;;;30.98;19.95;;;22.60;72.60;;;;;;10755773;33;20070;-71
2022/10/16 14:55:15;;;;;;;22.62;17.45;;;22.50;72.70;;;;;;10750722;33;20412;-72
2022/10/16 15:01:17;;;;;;;24.80;19.67;;;22.50;72.70;;;;;;10761759;33;20099;-72
2022/10/16 15:07:19;;;;;;;25.20;21.08;;;22.50;72.90;;;;;;10750738;33;20020;-77
2022/10/16 15:13:45;;;;;;;28.98;22.00;;;22.50;72.80;;;;;;10790058;33;20400;-77
2022/10/16 15:19:47;;;;;;;24.27;19.52;;;22.80;72.30;;;;;;10790965;33;20082;-77
2022/10/16 15:25:55;;;;;;;31.12;21.42;;;23.00;71.80;;;;;;10786491;33;20356;-77
2022/10/16 15:31:57;;;;;;;30.40;20.55;;;23.30;71.40;;;;;;10773289;33;20068;-77
2022/10/16 15:38:28;;;;;;;24.87;19.80;;;23.30;71.20;;;;;;10753830;33;20110;-77
2022/10/16 15:44:31;;;;;;;25.23;20.10;;;23.10;71.40;;;;;;10755451;33;20055;-77
2022/10/16 15:50:33;;;;;;;26.25;20.95;;;22.80;72.20;;;;;;10769684;32;20037;-77
2022/10/16 15:56:36;;;;;;;29.30;22.05;;;22.30;73.00;;;;;;10749602;33;20032;-77
2022/10/16 16:02:39;;;;;;;21.58;17.67;;;22.10;73.60;;;;;;10751941;33;20032;-73
2022/10/16 16:08:41;;;;;;;29.25;19.25;;;21.80;74.00;;;;;;10752512;33;20021;-72
2022/10/16 16:14:45;;;;;;;20.85;15.77;;;21.70;74.30;;;;;;10767785;33;20036;-72
2022/10/16 16:20:48;;;;;;;26.05;18.92;;;21.50;74.60;;;;;;10799048;26;20079;-72
2022/10/16 16:27:11;;;;;;;23.55;16.95;;;21.40;74.70;;;;;;10807813;33;20408;-72
2022/10/16 16:33:13;;;;;;;27.20;18.02;;;21.30;74.90;;;;;;10812663;32;20400;-72
2022/10/16 16:39:15;;;;;;;26.08;20.77;;;21.20;75.10;;;;;;10812190;33;20028;-71
2022/10/16 16:45:17;;;;;;;27.40;20.98;;;21.00;75.30;;;;;;10825276;33;20059;-76
2022/10/16 16:51:19;;;;;;;24.92;19.92;;;21.00;75.50;;;;;;10825004;33;20410;-76
2022/10/16 16:57:21;;;;;;;27.10;18.65;;;20.80;75.60;;;;;;10824945;33;20039;-76
2022/10/16 17:03:23;;;;;;;21.77;18.27;;;20.80;75.90;;;;;;10811849;33;20169;-76
2022/10/16 17:09:25;;;;;;;25.45;17.80;;;20.70;75.90;;;;;;10820709;33;20404;-76
2022/10/16 17:15:27;;;;;;;25.27;19.77;;;20.60;75.90;;;;;;10824564;33;20079;-76
2022/10/16 17:21:31;;;;;;;21.30;17.05;;;20.50;76.10;;;;;;10824291;33;20033;-76
2022/10/16 17:27:35;;;;;;;22.65;16.27;;;20.50;76.30;;;;;;10824224;33;20036;-76
2022/10/16 17:33:38;;;;;;;25.33;20.33;;;20.40;76.50;;;;;;10806884;33;20071;-76
2022/10/16 17:39:40;;;;;;;26.12;18.48;;;20.30;76.50;;;;;;10824103;33;20043;-76
2022/10/16 17:45:42;;;;;;;22.42;19.25;;;20.30;76.60;;;;;;10819770;33;20396;-76
2022/10/16 17:51:45;;;;;;;23.98;18.83;;;20.30;76.70;;;;;;10823806;33;20408;-76
2022/10/16 17:57:47;;;;;;;26.90;17.77;;;20.20;76.80;;;;;;10823716;33;20020;-76
2022/10/16 18:03:58;;;;;;;24.10;18.90;;;20.20;76.90;;;;;;10823396;33;20019;-76
2022/10/16 18:10:02;;;;;;;26.40;20.55;;;20.20;77.10;;;;;;10819950;32;20051;-76
2022/10/16 18:16:11;;;;;;;22.05;19.62;;;20.10;77.30;;;;;;10785485;32;20059;-75
2022/10/16 18:22:12;;;;;;;;;;;20.00;77.40;;;;;;10798965;32;20028;-76
2022/10/16 18:28:14;;;;;;;26.95;19.87;;;20.00;77.40;;;;;;10828738;33;19931;-76
2022/10/16 18:34:17;;;;;;;30.17;23.98;;;20.00;77.60;;;;;;10829117;33;20038;-76
2022/10/16 18:40:20;;;;;;;27.08;20.35;;;19.90;78.00;;;;;;10827354;33;20032;-77
2022/10/16 18:46:23;;;;;;;29.63;23.75;;;19.80;78.20;;;;;;10879597;32;20054;-76
2022/10/16 18:52:26;;;;;;;29.42;20.75;;;19.80;78.20;;;;;;10824207;33;20028;-76
2022/10/16 18:58:29;;;;;;;26.52;22.37;;;19.80;78.30;;;;;;10828222;33;20089;-76
2022/10/16 19:04:31;;;;;;;26.10;23.05;;;19.70;78.60;;;;;;10823962;33;20028;-76
2022/10/16 19:10:36;;;;;;;27.02;22.25;;;19.70;78.90;;;;;;10828123;33;20043;-76
2022/10/16 19:16:41;;;;;;;30.20;25.60;;;19.70;79.00;;;;;;10878234;32;20040;-76
2022/10/16 19:22:57;;;;;;;28.33;20.37;;;19.60;78.90;;;;;;10826103;33;20023;-76
2022/10/16 19:29:02;;;;;;;30.80;24.33;;;19.60;79.00;;;;;;10823317;32;20112;-76
2022/10/16 19:35:04;;;;;;;25.12;21.35;;;19.50;79.30;;;;;;10876952;32;20024;-76
2022/10/16 19:41:18;;;;;;;30.33;25.10;;;19.50;79.30;;;;;;10826992;33;20024;-76
2022/10/16 19:47:20;;;;;;;25.25;21.65;;;19.40;79.60;;;;;;10826773;33;20301;-76
2022/10/16 19:53:23;;;;;;;28.83;21.75;;;19.30;80.00;;;;;;10826732;33;20404;-76
2022/10/16 19:59:50;;;;;;;27.87;22.55;;;19.30;79.90;;;;;;10826491;33;20047;-76
2022/10/16 20:05:53;;;;;;;34.75;25.48;;;19.30;79.80;;;;;;10824827;32;20055;-76
2022/10/16 20:11:58;;;;;;;29.05;24.15;;;19.20;79.90;;;;;;10826131;33;20380;-76
2022/10/16 20:18:00;;;;;;;29.50;20.20;;;19.20;80.30;;;;;;10825024;33;20055;-76
2022/10/16 20:24:05;;;;;;;28.65;21.30;;;19.20;80.20;;;;;;10821665;33;20020;-76
2022/10/16 20:30:10;;;;;;;35.63;26.42;;;19.00;80.10;;;;;;10825922;32;20055;-76
2022/10/16 20:36:14;;;;;;;29.52;23.73;;;19.00;80.30;;;;;;10825499;33;20023;-76
2022/10/16 20:42:38;;;;;;;26.73;22.67;;;18.90;80.30;;;;;;10825386;33;20031;-76
2022/10/16 20:48:45;;;;;;;30.12;22.50;;;19.00;80.30;;;;;;10825084;32;20384;-76
2022/10/16 20:54:47;;;;;;;34.42;25.92;;;18.90;80.30;;;;;;10821055;33;20024;-76
2022/10/16 21:00:50;;;;;;;27.90;22.48;;;19.00;80.20;;;;;;10824757;33;20020;-76
2022/10/16 21:06:52;;;;;;;29.85;22.45;;;18.90;80.20;;;;;;10824794;33;20028;-76
2022/10/16 21:12:55;;;;;;;30.67;21.50;;;18.90;80.30;;;;;;10824639;33;20028;-76
2022/10/16 21:18:57;;;;;;;26.80;21.58;;;18.90;80.30;;;;;;10824552;33;20066;-76
2022/10/16 21:24:59;;;;;;;27.37;22.60;;;18.90;80.20;;;;;;10826796;33;20050;-77
2022/10/16 21:31:21;;;;;;;26.67;21.83;;;18.80;80.30;;;;;;10824223;33;20024;-77
2022/10/16 21:37:23;;;;;;;29.23;21.45;;;18.80;80.20;;;;;;10824154;32;20028;-76
2022/10/16 21:43:25;;;;;;;20.33;17.70;;;18.70;80.40;;;;;;10823989;33;20050;-78
2022/10/16 21:49:27;;;;;;;30.52;25.58;;;18.70;80.40;;;;;;10823748;33;20023;-77
2022/10/16 21:55:29;;;;;;;24.80;20.58;;;18.70;80.40;;;;;;10823534;33;20024;-77
2022/10/16 22:01:31;;;;;;;27.30;21.70;;;18.60;80.50;;;;;;10824888;32;20396;-78
2022/10/16 22:07:33;;;;;;;32.28;25.75;;;18.60;80.70;;;;;;10829893;32;20039;-76
2022/10/16 22:13:35;;;;;;;23.60;20.88;;;18.60;80.70;;;;;;10826372;33;20312;-76
2022/10/16 22:19:38;;;;;;;27.00;19.80;;;18.60;80.70;;;;;;10829444;33;20056;-76
2022/10/16 22:25:40;;;;;;;25.45;20.45;;;18.50;80.70;;;;;;10829279;32;20104;-78
2022/10/16 22:31:44;;;;;;;27.27;22.13;;;18.60;80.70;;;;;;10829087;33;20031;-76
2022/10/16 22:37:45;;;;;;;25.77;20.42;;;18.60;80.70;;;;;;10825709;33;20031;-76
2022/10/16 22:43:48;;;;;;;24.60;19.65;;;18.50;80.80;;;;;;10829066;33;20070;-77
2022/10/16 22:49:50;;;;;;;21.12;17.75;;;18.50;80.80;;;;;;10828722;33;20036;-76
2022/10/16 22:55:52;;;;;;;23.35;19.25;;;18.40;80.90;;;;;;10828469;32;20035;-76
2022/10/16 23:01:58;;;;;;;25.92;20.88;;;18.40;81.00;;;;;;10827347;33;20347;-76
2022/10/16 23:08:00;;;;;;;27.35;22.67;;;18.40;81.00;;;;;;10828295;33;20028;-76
2022/10/16 23:14:02;;;;;;;28.42;23.33;;;18.40;81.00;;;;;;10828486;32;20024;-76
2022/10/16 23:20:04;;;;;;;28.98;23.77;;;18.30;81.10;;;;;;10827842;32;20032;-75
2022/10/16 23:26:16;;;;;;;30.60;25.55;;;18.30;81.40;;;;;;10827607;32;20036;-76
2022/10/16 23:32:18;;;;;;;25.45;21.02;;;18.40;81.40;;;;;;10827366;33;20066;-76
2022/10/16 23:38:20;;;;;;;25.80;21.40;;;18.30;81.40;;;;;;10822250;33;20317;-76
2022/10/16 23:44:22;;;;;;;31.73;23.00;;;18.40;81.50;;;;;;10827004;33;20046;-76
2022/10/16 23:50:24;;;;;;;34.55;27.80;;;18.40;81.50;;;;;;10822713;33;20042;-75
2022/10/16 23:56:26;;;;;;;32.17;25.05;;;18.40;81.40;;;;;;10826794;33;20024;-76
